createdAt,value
2023-01-19T00:20:39.094Z,7.30
2023-01-19T00:23:41.430Z,7.72
2023-01-19T00:26:58.240Z,7.28
2023-01-19T01:11:39.095Z,7.35
2023-01-19T01:15:57.645Z,7.78
2023-01-19T01:23:25.689Z,7.93
2023-01-19T02:03:32.024Z,8.38
2023-01-19T02:07:17.488Z,8.23
2023-01-19T02:10:47.428Z,9.10
2023-01-19T02:14:12.583Z,9.48
2023-01-19T02:20:41.368Z,9.10
2023-01-19T02:27:27.616Z,9.63
2023-01-19T02:40:58.148Z,9.48
2023-01-19T02:44:40.637Z,10.05
2023-01-19T02:51:50.557Z,10.32
2023-01-19T02:55:37.332Z,9.55
2023-01-19T02:59:15.730Z,10.07
2023-01-19T03:06:46.803Z,9.68
2023-01-19T03:17:38.170Z,9.82
2023-01-19T03:21:16.902Z,9.43
2023-01-19T03:24:28.690Z,9.68
2023-01-19T03:27:59.289Z,9.60
2023-01-19T03:31:25.402Z,9.95
2023-01-19T03:34:44.959Z,9.77
2023-01-19T03:38:09.072Z,10.27
2023-01-19T03:41:35.199Z,9.55
2023-01-19T03:44:41.553Z,9.85
2023-01-19T04:05:25.657Z,9.82
2023-01-19T04:13:10.057Z,10.48
2023-01-19T04:16:40.661Z,10.57
2023-01-19T04:19:53.868Z,10.85
2023-01-19T04:23:09.883Z,11.25
2023-01-19T04:30:00.226Z,11.55
2023-01-19T04:33:27.190Z,10.93
2023-01-19T04:36:44.909Z,11.13
2023-01-19T04:50:34.162Z,10.65
2023-01-19T04:54:19.137Z,11.25
2023-01-19T04:57:59.889Z,11.65
2023-01-19T05:01:44.623Z,11.45
2023-01-19T05:05:22.267Z,10.20
2023-01-19T05:08:45.309Z,11.38
2023-01-19T05:11:53.224Z,11.70
2023-01-19T05:15:30.606Z,10.65
2023-01-19T05:23:04.060Z,11.40
2023-01-19T05:26:23.289Z,10.85
2023-01-19T05:29:34.832Z,11.45
2023-01-19T05:32:55.923Z,11.68
2023-01-19T05:36:21.840Z,11.68
2023-01-19T05:43:03.628Z,11.13
2023-01-19T05:46:14.030Z,12.23
2023-01-19T05:49:24.463Z,12.68
2023-01-19T05:52:29.296Z,12.95
2023-01-19T05:55:38.560Z,12.90
2023-01-19T05:58:46.179Z,12.60
2023-01-19T06:05:55.086Z,12.40
2023-01-19T06:09:02.841Z,13.35
2023-01-19T06:12:09.301Z,13.77
2023-01-19T06:15:14.981Z,12.45
2023-01-19T06:18:36.855Z,13.57
2023-01-19T06:28:59.802Z,14.23
2023-01-19T06:32:24.004Z,14.07
2023-01-19T06:36:06.331Z,14.05
2023-01-19T06:39:48.447Z,13.65
2023-01-19T06:43:21.130Z,13.80
2023-01-19T06:53:49.502Z,12.93
2023-01-19T07:18:58.016Z,14.30
2023-01-19T07:29:36.718Z,14.05
2023-01-19T07:33:04.136Z,13.98
2023-01-19T07:36:18.486Z,15.35
2023-01-19T07:39:31.771Z,14.02
2023-01-19T07:42:36.025Z,14.32
2023-01-19T07:45:54.558Z,14.77
2023-01-19T07:49:00.100Z,15.15
2023-01-19T07:52:34.760Z,15.10
2023-01-19T07:55:39.314Z,14.35
2023-01-19T07:58:41.243Z,14.48
2023-01-19T08:01:45.902Z,14.38
2023-01-19T08:04:51.007Z,14.38
2023-01-19T08:07:54.234Z,14.10
2023-01-19T08:10:56.517Z,13.13
2023-01-19T08:14:00.125Z,14.30
2023-01-19T08:17:14.702Z,14.35
2023-01-19T08:20:21.198Z,14.75
2023-01-19T08:23:39.239Z,14.43
2023-01-19T08:26:54.834Z,14.15
2023-01-19T08:30:36.497Z,14.13
2023-01-19T08:38:14.413Z,14.25
2023-01-19T08:41:25.645Z,13.45
2023-01-19T08:44:30.141Z,13.60
2023-01-19T08:47:33.838Z,13.88
2023-01-19T08:50:36.132Z,14.73
2023-01-19T08:53:40.563Z,14.75
2023-01-19T08:56:44.862Z,14.80
2023-01-19T08:59:47.617Z,14.10
2023-01-19T09:02:54.807Z,14.43
2023-01-19T09:06:07.743Z,14.15
2023-01-19T09:09:12.839Z,14.43
2023-01-19T09:12:20.342Z,15.88
2023-01-19T09:16:18.487Z,14.75
2023-01-19T09:19:20.694Z,14.23
2023-01-19T09:22:22.607Z,14.20
2023-01-19T09:25:25.083Z,14.65
2023-01-19T09:28:27.857Z,15.87
2023-01-19T09:31:30.150Z,15.45
2023-01-19T09:34:32.434Z,15.40
2023-01-19T09:37:37.994Z,15.82
2023-01-19T09:44:46.644Z,16.63
2023-01-19T09:52:15.066Z,16.55
2023-01-19T09:55:28.997Z,15.82
2023-01-19T09:58:41.608Z,16.65
2023-01-19T10:03:20.470Z,15.17
2023-01-19T10:07:45.455Z,15.73
2023-01-19T10:39:24.216Z,15.48
2023-01-19T10:42:45.384Z,15.65
2023-01-19T10:45:55.119Z,15.80
2023-01-19T10:57:28.084Z,15.98
2023-01-19T11:00:38.572Z,14.80
2023-01-19T11:03:40.502Z,15.02
2023-01-19T11:06:42.536Z,14.80
2023-01-19T11:09:44.644Z,17.08
2023-01-19T11:17:16.090Z,14.82
2023-01-19T11:33:43.886Z,15.38
2023-01-19T11:36:59.746Z,14.95
2023-01-19T11:40:10.246Z,14.43
2023-01-19T11:43:13.817Z,14.63
2023-01-19T11:46:17.724Z,14.00
2023-01-19T11:49:44.364Z,13.75
2023-01-19T11:52:53.531Z,13.07
2023-01-19T11:56:08.469Z,13.77
2023-01-19T11:59:13.252Z,13.30
2023-01-19T12:02:42.615Z,12.95
2023-01-19T12:05:50.060Z,12.68
2023-01-19T12:09:10.417Z,12.18
2023-01-19T12:12:33.853Z,12.98
2023-01-19T12:15:40.758Z,11.90
2023-01-19T12:18:47.740Z,11.02
2023-01-19T12:21:52.504Z,10.73
2023-01-19T12:25:26.979Z,10.85
2023-01-19T12:28:33.015Z,10.57
2023-01-19T12:31:35.381Z,10.95
2023-01-19T12:34:41.867Z,10.60
2023-01-19T12:37:45.329Z,11.48
2023-01-19T12:40:47.129Z,12.02
2023-01-19T12:44:14.151Z,11.68
2023-01-19T12:47:16.185Z,11.75
2023-01-19T12:50:21.258Z,11.15
2023-01-19T12:53:23.151Z,11.35
2023-01-19T12:56:31.575Z,11.05
2023-01-19T12:59:37.369Z,11.25
2023-01-19T13:02:45.269Z,10.98
2023-01-19T13:05:55.766Z,11.10
2023-01-19T13:09:01.378Z,10.07
2023-01-19T13:12:20.341Z,9.68
2023-01-19T13:15:35.817Z,9.80
2023-01-19T13:18:41.631Z,9.95
2023-01-19T13:21:48.867Z,10.25
2023-01-19T13:25:13.200Z,10.35
2023-01-19T13:28:18.425Z,9.57
2023-01-19T13:31:21.737Z,9.40
2023-01-19T13:37:37.033Z,10.05
2023-01-19T13:40:39.466Z,8.43
2023-01-19T13:43:42.687Z,8.77
2023-01-19T13:46:46.087Z,8.48
2023-01-19T13:49:55.984Z,8.88
2023-01-19T13:53:00.419Z,7.68
2023-01-19T13:56:18.554Z,7.35
2023-01-19T13:59:20.765Z,6.70
2023-01-19T14:02:22.748Z,6.78
2023-01-19T14:05:44.203Z,6.07
2023-01-19T14:08:46.061Z,6.22
2023-01-19T14:12:04.816Z,6.50
2023-01-19T14:15:14.080Z,6.57
2023-01-19T14:18:19.092Z,6.40
2023-01-19T14:21:21.084Z,7.65
2023-01-19T14:24:23.978Z,6.78
2023-01-19T14:27:25.773Z,6.70
2023-01-19T14:30:28.393Z,7.15
2023-01-19T14:33:46.202Z,7.05
2023-01-19T14:36:51.652Z,6.65
2023-01-19T14:40:08.806Z,7.40
2023-01-19T14:43:13.260Z,7.10
2023-01-19T14:46:19.293Z,7.03
2023-01-19T14:49:42.308Z,7.53
2023-01-19T14:53:09.482Z,6.47
2023-01-19T14:56:11.321Z,7.22
2023-01-19T14:59:13.303Z,6.28
2023-01-19T15:02:21.507Z,6.75
2023-01-19T15:05:24.060Z,6.90
2023-01-19T15:08:30.898Z,6.40
2023-01-19T15:11:36.184Z,5.93
2023-01-19T15:14:38.115Z,6.85
2023-01-19T15:17:40.112Z,5.53
2023-01-19T15:20:42.013Z,6.05
2023-01-19T15:23:44.033Z,5.70
2023-01-19T15:26:46.117Z,6.03
2023-01-19T15:29:47.980Z,5.55
2023-01-19T15:32:50.438Z,5.50
2023-01-19T15:35:53.146Z,4.50
2023-01-19T15:38:57.235Z,5.47
2023-01-19T15:41:59.549Z,6.05
2023-01-19T15:45:01.445Z,6.05
2023-01-19T15:48:08.870Z,6.00
2023-01-19T15:51:17.177Z,5.30
2023-01-19T15:54:19.292Z,5.78
2023-01-19T15:57:21.152Z,5.65
2023-01-19T16:00:23.201Z,6.13
2023-01-19T16:03:25.959Z,5.15
2023-01-19T16:06:28.403Z,6.10
2023-01-19T16:09:30.532Z,5.70
2023-01-19T16:12:32.369Z,5.88
2023-01-19T16:15:38.155Z,6.57
2023-01-19T16:18:40.180Z,6.03
2023-01-19T16:21:44.002Z,6.20
2023-01-19T16:24:45.999Z,6.00
2023-01-19T16:27:48.220Z,5.45
2023-01-19T16:30:50.203Z,6.03
2023-01-19T16:33:53.239Z,6.05
2023-01-19T16:36:55.773Z,6.10
2023-01-19T16:39:57.595Z,6.25
2023-01-19T16:43:00.088Z,6.22
2023-01-19T16:46:04.394Z,6.43
2023-01-19T16:49:12.146Z,6.57
2023-01-19T16:52:14.225Z,6.25
2023-01-19T16:55:16.319Z,6.45
2023-01-19T16:58:18.152Z,6.65
2023-01-19T17:01:21.061Z,7.20
2023-01-19T17:04:24.016Z,6.50
2023-01-19T17:07:26.731Z,6.85
2023-01-19T17:10:28.625Z,9.18
2023-01-19T17:13:31.187Z,8.02
2023-01-19T17:16:34.947Z,7.93
2023-01-19T17:19:36.962Z,7.03
2023-01-19T17:22:39.045Z,7.78
2023-01-19T17:25:40.917Z,7.32
2023-01-19T17:28:42.907Z,7.90
2023-01-19T17:31:45.988Z,8.52
2023-01-19T17:34:51.207Z,8.55
2023-01-19T17:37:54.695Z,9.05
2023-01-19T17:40:56.733Z,8.40
2023-01-19T17:44:01.667Z,8.23
2023-01-19T17:47:03.762Z,10.13
2023-01-19T17:50:06.138Z,9.95
2023-01-19T17:53:08.190Z,9.70
2023-01-19T17:56:12.674Z,9.75
2023-01-19T17:59:14.668Z,10.73
2023-01-19T18:02:16.719Z,9.93
2023-01-19T18:05:19.823Z,9.95
2023-01-19T18:08:22.372Z,9.63
2023-01-19T18:11:24.333Z,8.60
2023-01-19T18:14:26.219Z,8.18
2023-01-19T18:17:28.246Z,8.98
2023-01-19T18:20:32.235Z,8.45
2023-01-19T18:23:34.470Z,9.15
2023-01-19T18:26:38.007Z,8.98
2023-01-19T18:29:40.067Z,8.07
2023-01-19T18:32:41.867Z,9.00
2023-01-19T18:35:44.807Z,8.90
2023-01-19T18:38:47.053Z,9.45
2023-01-19T18:41:49.206Z,8.77
2023-01-19T18:44:52.424Z,8.68
2023-01-19T18:47:54.292Z,9.77
2023-01-19T18:50:56.566Z,10.45
2023-01-19T18:53:59.245Z,9.60
2023-01-19T18:57:01.125Z,8.30
2023-01-19T19:00:05.683Z,8.88
2023-01-19T19:03:10.388Z,7.75
2023-01-19T19:06:12.609Z,8.57
2023-01-19T19:09:17.647Z,8.93
2023-01-19T19:12:19.902Z,8.98
2023-01-19T19:15:22.274Z,8.10
2023-01-19T19:18:24.172Z,8.05
2023-01-19T19:21:26.269Z,9.07
2023-01-19T19:24:28.344Z,8.30
2023-01-19T19:27:30.558Z,7.95
2023-01-19T19:30:34.665Z,9.80
2023-01-19T19:33:38.240Z,9.88
2023-01-19T19:36:42.085Z,9.60
2023-01-19T19:39:43.916Z,8.77
2023-01-19T19:42:45.728Z,9.43
2023-01-19T19:46:05.790Z,9.50
2023-01-19T19:50:11.078Z,9.40
2023-01-19T19:58:01.380Z,9.70
2023-01-19T20:05:30.090Z,8.85
2023-01-19T20:08:32.123Z,9.43
2023-01-19T20:11:34.961Z,8.85
2023-01-19T20:14:50.051Z,8.63
2023-01-19T20:17:59.951Z,9.10
2023-01-19T20:21:51.249Z,9.65
2023-01-19T21:01:46.220Z,11.90
2023-01-19T21:04:48.262Z,12.07
2023-01-19T21:07:50.694Z,12.00
2023-01-19T21:10:59.589Z,11.23
2023-01-19T21:14:04.100Z,11.32
2023-01-19T21:17:06.121Z,11.30
2023-01-19T21:20:09.058Z,11.70
2023-01-19T21:23:11.447Z,10.93
2023-01-19T21:26:14.090Z,8.97
2023-01-19T21:29:16.089Z,12.10
2023-01-19T21:32:18.020Z,12.50
2023-01-19T21:35:20.194Z,12.70
2023-01-19T21:38:23.719Z,13.10
2023-01-19T21:41:26.297Z,14.95
2023-01-19T21:44:28.359Z,14.32
2023-01-19T21:47:30.610Z,12.20
2023-01-19T21:50:32.603Z,10.60
2023-01-19T21:53:34.832Z,11.02
2023-01-19T21:56:38.055Z,11.00
2023-01-19T22:02:44.978Z,10.18
2023-01-19T22:05:49.047Z,11.60
2023-01-19T22:08:51.214Z,11.25
2023-01-19T22:11:53.397Z,11.75
2023-01-19T22:14:55.374Z,11.50
2023-01-19T22:17:57.406Z,11.30
2023-01-19T22:21:08.425Z,11.80
2023-01-19T22:24:10.563Z,12.38
2023-01-19T22:27:13.220Z,12.48
2023-01-19T22:30:15.538Z,12.40
2023-01-19T22:33:17.490Z,11.70
2023-01-19T22:36:24.756Z,10.93
2023-01-19T22:39:26.945Z,11.30
2023-01-19T22:42:28.827Z,11.50
2023-01-19T22:45:30.808Z,11.85
2023-01-19T22:48:32.673Z,10.65
2023-01-19T22:51:35.764Z,11.35
2023-01-19T22:54:37.769Z,11.40
2023-01-19T22:57:39.659Z,10.77
2023-01-19T23:00:41.753Z,11.45
2023-01-19T23:03:44.104Z,11.85
2023-01-19T23:06:50.313Z,10.90
2023-01-19T23:09:52.202Z,12.30
2023-01-19T23:12:54.204Z,10.93
2023-01-19T23:15:57.896Z,11.88
2023-01-19T23:19:00.431Z,12.05
2023-01-19T23:22:02.395Z,8.75
2023-01-19T23:25:04.464Z,11.20
2023-01-19T23:28:06.597Z,11.77
2023-01-19T23:31:24.288Z,12.75
2023-01-19T23:34:26.143Z,11.90
2023-01-19T23:37:28.391Z,12.23
2023-01-19T23:40:30.263Z,12.95
2023-01-19T23:43:32.695Z,12.15
2023-01-19T23:46:34.797Z,12.13
2023-01-19T23:49:37.223Z,13.13
2023-01-19T23:52:39.128Z,13.30
2023-01-19T23:55:42.143Z,12.20
2023-01-19T23:58:45.264Z,13.90
